createdAt,value
2023-03-18T00:02:34.432Z,100330.03
2023-03-18T00:07:37.567Z,100333.31
2023-03-18T00:12:43.279Z,100327.50
2023-03-18T00:17:46.584Z,100323.31
2023-03-18T00:22:50.987Z,100332.06
2023-03-18T00:27:55.052Z,100333.47
2023-03-18T00:32:59.045Z,100334.81
2023-03-18T00:38:03.966Z,100322.19
2023-03-18T00:43:09.222Z,100318.47
2023-03-18T00:48:12.180Z,100325.09
2023-03-18T00:53:15.287Z,100317.78
2023-03-18T00:58:20.085Z,100329.34
2023-03-18T01:03:25.786Z,100338.13
2023-03-18T01:08:29.805Z,100349.09
2023-03-18T01:13:35.659Z,100344.38
2023-03-18T01:18:40.616Z,100337.94
2023-03-18T01:23:43.486Z,100331.09
2023-03-18T01:28:48.081Z,100339.41
2023-03-18T01:33:50.949Z,100346.19
2023-03-18T01:38:53.737Z,100339.97
2023-03-18T01:43:58.306Z,100339.69
2023-03-18T01:49:05.459Z,100332.72
2023-03-18T01:54:10.313Z,100336.13
2023-03-18T01:59:16.256Z,100339.66
2023-03-18T02:04:21.319Z,100344.19
2023-03-18T02:09:24.126Z,100347.47
2023-03-18T02:14:28.730Z,100348.41
2023-03-18T02:19:42.403Z,100355.75
2023-03-18T02:24:52.811Z,100369.50
2023-03-18T02:30:01.568Z,100359.94
2023-03-18T02:35:10.952Z,100359.81
2023-03-18T02:40:17.608Z,100359.63
2023-03-18T02:45:36.905Z,100355.16
2023-03-18T02:50:45.387Z,100362.50
2023-03-18T02:55:48.580Z,100363.63
2023-03-18T03:00:52.854Z,100352.09
2023-03-18T03:05:56.269Z,100358.84
2023-03-18T03:11:00.340Z,100361.50
2023-03-18T03:16:08.114Z,100365.72
2023-03-18T03:21:12.929Z,100352.63
2023-03-18T03:26:15.994Z,100359.91
2023-03-18T03:31:20.457Z,100368.16
2023-03-18T03:36:23.304Z,100368.19
2023-03-18T03:41:26.115Z,100347.94
2023-03-18T03:46:30.515Z,100336.63
2023-03-18T03:51:34.570Z,100350.00
2023-03-18T03:56:37.576Z,100351.28
2023-03-18T04:01:41.726Z,100359.59
2023-03-18T04:06:44.477Z,100359.94
2023-03-18T04:11:47.926Z,100366.66
2023-03-18T04:16:53.087Z,100370.84
2023-03-18T04:21:56.667Z,100359.06
2023-03-18T04:27:00.565Z,100378.53
2023-03-18T04:32:05.177Z,100373.13
2023-03-18T04:37:10.047Z,100376.34
2023-03-18T04:42:17.784Z,100371.59
2023-03-18T04:47:22.796Z,100361.53
2023-03-18T04:52:27.869Z,100367.69
2023-03-18T04:57:31.689Z,100376.94
2023-03-18T05:02:35.930Z,100381.69
2023-03-18T05:07:40.148Z,100407.13
2023-03-18T05:12:48.551Z,100402.25
2023-03-18T05:17:56.664Z,100397.53
2023-03-18T05:22:59.677Z,100383.94
2023-03-18T05:28:11.360Z,100384.09
2023-03-18T05:33:26.674Z,100390.06
2023-03-18T05:38:32.455Z,100394.72
2023-03-18T05:43:36.671Z,100401.84
2023-03-18T05:48:41.945Z,100402.13
2023-03-18T05:53:45.440Z,100418.06
2023-03-18T05:58:56.119Z,100427.22
2023-03-18T06:04:07.306Z,100426.44
2023-03-18T06:09:11.991Z,100430.53
2023-03-18T06:14:17.432Z,100434.88
2023-03-18T06:19:22.949Z,100423.81
2023-03-18T06:24:26.184Z,100435.44
2023-03-18T06:29:31.600Z,100430.84
2023-03-18T06:34:43.445Z,100429.72
2023-03-18T06:39:47.067Z,100431.94
2023-03-18T06:44:51.773Z,100426.38
2023-03-18T06:50:01.678Z,100436.31
2023-03-18T06:55:09.399Z,100448.31
2023-03-18T07:00:16.286Z,100458.38
2023-03-18T07:05:21.576Z,100473.88
2023-03-18T07:10:28.263Z,100476.47
2023-03-18T07:15:39.137Z,100486.00
2023-03-18T07:20:43.769Z,100493.31
2023-03-18T07:25:46.865Z,100496.28
2023-03-18T07:30:51.934Z,100493.88
2023-03-18T07:35:57.620Z,100509.13
2023-03-18T07:41:00.703Z,100511.66
2023-03-18T07:46:04.487Z,100512.25
2023-03-18T07:51:08.626Z,100522.78
2023-03-18T07:56:12.289Z,100522.41
2023-03-18T08:01:18.431Z,100529.91
2023-03-18T08:06:22.781Z,100529.25
2023-03-18T08:11:25.761Z,100531.31
2023-03-18T08:16:28.580Z,100541.78
2023-03-18T08:21:32.783Z,100543.03
2023-03-18T08:26:35.551Z,100558.50
2023-03-18T08:31:38.767Z,100549.34
2023-03-18T08:36:43.577Z,100558.88
2023-03-18T08:41:46.300Z,100573.16
2023-03-18T08:46:49.280Z,100584.31
2023-03-18T08:51:53.867Z,100587.22
2023-03-18T08:56:56.794Z,100604.78
2023-03-18T09:01:59.611Z,100603.22
2023-03-18T09:07:04.468Z,100612.28
2023-03-18T09:12:08.032Z,100602.91
2023-03-18T09:17:11.133Z,100605.03
2023-03-18T09:22:15.820Z,100613.94
2023-03-18T09:27:18.803Z,100614.22
2023-03-18T09:32:22.080Z,100620.38
2023-03-18T09:37:27.928Z,100630.59
2023-03-18T09:42:45.615Z,100628.22
2023-03-18T09:48:01.593Z,100629.81
2023-03-18T09:53:15.371Z,100624.44
2023-03-18T09:58:24.627Z,100627.19
2023-03-18T10:03:34.933Z,100642.69
2023-03-18T10:08:50.965Z,100638.72
2023-03-18T10:13:59.878Z,100649.34
2023-03-18T10:19:03.403Z,100647.31
2023-03-18T10:24:22.303Z,100641.88
2023-03-18T10:29:40.592Z,100646.31
2023-03-18T10:34:56.984Z,100646.16
2023-03-18T10:40:01.499Z,100645.66
2023-03-18T10:45:12.142Z,100637.47
2023-03-18T10:50:20.731Z,100651.78
2023-03-18T10:55:31.126Z,100653.59
2023-03-18T11:00:35.676Z,100660.31
2023-03-18T11:05:39.347Z,100668.88
2023-03-18T11:10:47.139Z,100669.44
2023-03-18T11:15:51.911Z,100668.69
2023-03-18T11:21:00.683Z,100674.13
2023-03-18T11:26:09.565Z,100675.59
2023-03-18T11:31:19.053Z,100676.13
2023-03-18T11:36:25.263Z,100669.91
2023-03-18T11:41:30.346Z,100669.31
2023-03-18T11:46:37.696Z,100670.06
2023-03-18T11:51:47.632Z,100667.81
2023-03-18T11:56:57.286Z,100664.56
2023-03-18T12:02:30.934Z,100680.41
2023-03-18T12:07:49.417Z,100677.03
2023-03-18T12:13:03.568Z,100677.22
2023-03-18T12:18:18.670Z,100678.09
2023-03-18T12:23:41.197Z,100681.81
2023-03-18T12:29:04.822Z,100686.59
2023-03-18T12:34:16.881Z,100686.47
2023-03-18T12:40:06.223Z,100688.63
2023-03-18T12:45:15.296Z,100692.56
2023-03-18T12:50:21.869Z,100687.91
2023-03-18T12:55:29.417Z,100692.19
2023-03-18T13:00:39.957Z,100687.44
2023-03-18T13:05:46.411Z,100683.50
2023-03-18T13:10:57.176Z,100673.31
2023-03-18T13:16:04.628Z,100681.66
2023-03-18T13:21:09.552Z,100680.97
2023-03-18T13:26:22.465Z,100679.69
2023-03-18T13:31:39.294Z,100679.81
2023-03-18T13:37:07.307Z,100681.72
2023-03-18T13:42:26.468Z,100694.69
2023-03-18T13:47:37.685Z,100692.44
2023-03-18T13:52:44.011Z,100695.22
2023-03-18T13:57:49.312Z,100695.88
2023-03-18T14:03:07.788Z,100685.06
2023-03-18T14:08:44.566Z,100696.38
2023-03-18T14:13:51.743Z,100688.06
2023-03-18T14:18:59.699Z,100690.75
2023-03-18T14:24:07.607Z,100692.66
2023-03-18T14:29:23.212Z,100686.06
2023-03-18T14:34:33.472Z,100685.94
2023-03-18T14:39:39.929Z,100692.59
2023-03-18T14:44:47.375Z,100688.41
2023-03-18T14:49:55.610Z,100684.22
2023-03-18T14:55:03.471Z,100680.22
2023-03-18T15:00:08.718Z,100676.94
2023-03-18T15:05:17.043Z,100683.81
2023-03-18T15:10:24.475Z,100694.44
2023-03-18T15:15:28.355Z,100691.09
2023-03-18T15:20:36.477Z,100702.44
2023-03-18T15:25:42.504Z,100705.06
2023-03-18T15:30:54.114Z,100704.44
2023-03-18T15:36:05.850Z,100695.41
2023-03-18T15:41:12.742Z,100696.34
2023-03-18T15:46:18.663Z,100706.13
2023-03-18T15:51:29.914Z,100690.44
2023-03-18T15:56:35.425Z,100711.47
2023-03-18T16:01:39.821Z,100708.94
2023-03-18T16:06:44.250Z,100707.78
2023-03-18T16:11:49.514Z,100704.72
2023-03-18T16:16:53.119Z,100707.81
2023-03-18T16:21:59.811Z,100703.06
2023-03-18T16:27:05.013Z,100716.66
2023-03-18T16:32:12.260Z,100721.97
2023-03-18T16:37:22.385Z,100723.44
2023-03-18T16:42:27.137Z,100725.31
2023-03-18T16:47:29.910Z,100733.16
2023-03-18T16:52:34.043Z,100733.00
2023-03-18T16:57:40.751Z,100729.75
2023-03-18T17:02:43.993Z,100736.31
2023-03-18T17:07:48.784Z,100739.38
2023-03-18T17:12:55.391Z,100739.34
2023-03-18T17:17:59.683Z,100744.69
2023-03-18T17:23:04.601Z,100747.66
2023-03-18T17:28:08.394Z,100750.34
2023-03-18T17:33:21.850Z,100760.13
2023-03-18T17:38:26.116Z,100755.53
2023-03-18T17:43:30.901Z,100761.53
2023-03-18T17:48:35.006Z,100770.75
2023-03-18T17:53:41.454Z,100768.38
2023-03-18T17:58:46.741Z,100776.44
2023-03-18T18:03:49.657Z,100775.09
2023-03-18T18:08:56.098Z,100778.06
2023-03-18T18:14:04.163Z,100788.66
2023-03-18T18:19:07.528Z,100783.28
2023-03-18T18:24:19.351Z,100788.06
2023-03-18T18:29:24.002Z,100795.91
2023-03-18T18:34:26.860Z,100795.50
2023-03-18T18:39:31.081Z,100800.44
2023-03-18T18:44:33.843Z,100798.72
2023-03-18T18:49:36.739Z,100801.63
2023-03-18T18:54:41.816Z,100810.69
2023-03-18T18:59:44.624Z,100805.13
2023-03-18T19:04:47.458Z,100814.03
2023-03-18T19:09:52.109Z,100810.22
2023-03-18T19:14:54.896Z,100800.31
2023-03-18T19:19:58.416Z,100790.19
2023-03-18T19:25:02.563Z,100800.28
2023-03-18T19:30:20.176Z,100791.56
2023-03-18T19:35:23.201Z,100793.88
2023-03-18T19:40:31.700Z,100801.81
2023-03-18T19:45:34.768Z,100798.25
2023-03-18T19:50:37.644Z,100789.09
2023-03-18T19:55:42.567Z,100791.38
2023-03-18T20:00:45.416Z,100805.28
2023-03-18T20:05:49.012Z,100802.31
2023-03-18T20:10:53.103Z,100808.03
2023-03-18T20:15:56.187Z,100815.78
2023-03-18T20:20:59.277Z,100822.09
2023-03-18T20:26:03.419Z,100840.59
2023-03-18T20:31:06.435Z,100848.75
2023-03-18T20:36:16.284Z,100847.88
2023-03-18T20:41:21.767Z,100845.16
2023-03-18T20:46:25.700Z,100842.97
2023-03-18T20:51:33.149Z,100838.75
2023-03-18T20:56:37.315Z,100843.16
2023-03-18T21:01:40.432Z,100844.78
2023-03-18T21:06:44.046Z,100845.16
2023-03-18T21:11:48.204Z,100849.28
2023-03-18T21:16:51.805Z,100836.41
2023-03-18T21:21:54.655Z,100836.91
2023-03-18T21:27:04.769Z,100834.19
2023-03-18T21:32:14.571Z,100826.72
2023-03-18T21:37:18.654Z,100820.25
2023-03-18T21:42:25.042Z,100825.63
2023-03-18T21:47:28.062Z,100832.16
2023-03-18T21:52:32.528Z,100824.38
2023-03-18T21:57:37.089Z,100822.03
2023-03-18T22:02:39.892Z,100817.84
2023-03-18T22:07:43.043Z,100813.31
2023-03-18T22:12:47.216Z,100816.91
2023-03-18T22:17:50.278Z,100809.88
2023-03-18T22:22:53.170Z,100812.44
2023-03-18T22:27:57.523Z,100802.63
2023-03-18T22:33:02.493Z,100793.03
2023-03-18T22:38:05.318Z,100792.94
2023-03-18T22:43:23.344Z,100800.13
2023-03-18T22:48:26.715Z,100800.53
2023-03-18T22:53:33.101Z,100799.06
2023-03-18T22:58:37.355Z,100804.63
2023-03-18T23:03:43.824Z,100791.22
2023-03-18T23:08:49.805Z,100791.19
2023-03-18T23:13:54.551Z,100792.00
2023-03-18T23:18:57.317Z,100793.28
2023-03-18T23:24:00.021Z,100785.59
2023-03-18T23:29:04.166Z,100787.25
2023-03-18T23:34:06.932Z,100788.50
2023-03-18T23:39:10.150Z,100796.44
2023-03-18T23:44:14.253Z,100780.47
2023-03-18T23:49:18.072Z,100775.41
2023-03-18T23:54:20.960Z,100776.44
2023-03-18T23:59:25.067Z,100774.28
